createdAt,value
2018-10-09T00:00:57.074Z,32.43
2018-10-09T00:03:25.485Z,32.50
2018-10-09T00:05:54.004Z,31.03
2018-10-09T00:08:22.473Z,30.87
2018-10-09T00:10:50.978Z,34.63
2018-10-09T00:13:19.417Z,29.77
2018-10-09T00:15:47.893Z,31.43
2018-10-09T00:18:16.419Z,28.27
2018-10-09T00:20:44.932Z,35.17
2018-10-09T00:23:13.391Z,33.77
2018-10-09T00:25:41.873Z,40.90
2018-10-09T00:28:10.328Z,48.93
2018-10-09T00:30:38.946Z,40.23
2018-10-09T00:33:07.446Z,41.00
2018-10-09T00:35:35.901Z,41.97
2018-10-09T00:38:04.465Z,57.57
2018-10-09T00:40:32.902Z,55.67
2018-10-09T00:43:01.391Z,44.57
2018-10-09T00:45:29.926Z,51.30
2018-10-09T00:47:58.426Z,43.23
2018-10-09T00:50:26.943Z,35.20
2018-10-09T00:52:55.489Z,40.43
2018-10-09T00:55:23.993Z,38.90
2018-10-09T00:57:52.532Z,37.90
2018-10-09T01:00:21.057Z,49.40
2018-10-09T01:02:49.522Z,44.33
2018-10-09T01:05:18.036Z,50.27
2018-10-09T01:07:46.521Z,45.23
2018-10-09T01:10:15.044Z,33.67
2018-10-09T01:12:43.488Z,35.23
2018-10-09T01:15:12.073Z,31.43
2018-10-09T01:17:40.516Z,34.20
2018-10-09T01:20:09.002Z,36.93
2018-10-09T01:22:37.485Z,35.80
2018-10-09T01:25:05.944Z,35.97
2018-10-09T01:27:34.487Z,37.83
2018-10-09T01:30:03.010Z,38.57
2018-10-09T01:32:31.480Z,45.47
2018-10-09T01:34:59.934Z,46.87
2018-10-09T01:37:28.432Z,48.57
2018-10-09T01:39:56.849Z,58.20
2018-10-09T01:42:25.327Z,48.80
2018-10-09T01:44:53.777Z,49.53
2018-10-09T01:47:22.288Z,45.90
2018-10-09T01:49:50.701Z,44.70
2018-10-09T01:52:19.213Z,47.60
2018-10-09T01:54:47.722Z,46.43
2018-10-09T01:57:16.205Z,44.33
2018-10-09T01:59:44.666Z,50.33
2018-10-09T02:02:13.179Z,49.80
2018-10-09T02:04:41.662Z,52.57
2018-10-09T02:07:10.134Z,55.43
2018-10-09T02:09:38.653Z,53.43
2018-10-09T02:12:07.214Z,49.20
2018-10-09T02:14:35.722Z,51.63
2018-10-09T02:17:04.261Z,49.63
2018-10-09T02:19:32.769Z,56.00
2018-10-09T02:22:01.301Z,59.63
2018-10-09T02:24:29.791Z,66.10
2018-10-09T02:26:58.316Z,58.63
2018-10-09T02:29:26.802Z,63.13
2018-10-09T02:31:55.308Z,64.13
2018-10-09T02:34:23.823Z,47.90
2018-10-09T02:36:52.339Z,37.87
2018-10-09T02:39:20.810Z,38.40
2018-10-09T02:41:49.307Z,40.50
2018-10-09T02:44:17.760Z,38.23
2018-10-09T02:46:46.227Z,37.33
2018-10-09T02:49:14.680Z,40.57
2018-10-09T02:51:43.154Z,40.73
2018-10-09T02:54:11.586Z,44.63
2018-10-09T02:56:40.067Z,46.23
2018-10-09T02:59:08.533Z,44.93
2018-10-09T03:01:37.054Z,46.83
2018-10-09T03:04:05.711Z,43.97
2018-10-09T03:06:34.237Z,53.10
2018-10-09T03:09:02.755Z,54.87
2018-10-09T03:11:31.218Z,50.27
2018-10-09T03:13:59.667Z,52.20
2018-10-09T03:16:28.161Z,51.23
2018-10-09T03:18:56.615Z,45.87
2018-10-09T03:21:25.153Z,46.83
2018-10-09T03:23:53.633Z,45.97
2018-10-09T03:26:22.157Z,44.27
2018-10-09T03:28:50.618Z,54.97
2018-10-09T03:31:19.102Z,48.77
2018-10-09T03:33:47.542Z,48.00
2018-10-09T03:36:16.045Z,46.17
2018-10-09T03:38:44.480Z,43.37
2018-10-09T03:41:12.962Z,39.17
2018-10-09T03:43:41.397Z,43.77
2018-10-09T03:46:09.901Z,50.03
2018-10-09T03:48:42.643Z,48.97
2018-10-09T03:51:11.739Z,45.90
2018-10-09T03:53:40.246Z,43.23
2018-10-09T03:56:08.752Z,50.90
2018-10-09T03:58:39.173Z,53.60
2018-10-09T04:01:10.078Z,43.63
2018-10-09T04:03:40.693Z,46.10
2018-10-09T04:06:11.787Z,43.90
2018-10-09T04:08:40.223Z,68.37
2018-10-09T04:11:08.696Z,69.80
2018-10-09T04:13:37.328Z,76.57
2018-10-09T04:16:06.110Z,77.90
2018-10-09T04:18:34.606Z,88.50
2018-10-09T04:21:03.084Z,89.93
2018-10-09T04:23:31.569Z,78.67
2018-10-09T04:26:00.009Z,73.17
2018-10-09T04:28:28.488Z,79.90
2018-10-09T04:30:56.922Z,84.77
2018-10-09T04:33:25.386Z,66.23
2018-10-09T04:35:53.863Z,79.80
2018-10-09T04:38:25.399Z,75.23
2018-10-09T04:40:53.833Z,67.47
2018-10-09T04:43:22.995Z,62.00
2018-10-09T04:45:51.491Z,65.57
2018-10-09T04:48:20.074Z,66.20
2018-10-09T04:50:48.545Z,66.57
2018-10-09T04:53:17.042Z,60.53
2018-10-09T04:55:45.498Z,52.83
2018-10-09T04:58:13.984Z,60.43
2018-10-09T05:00:42.499Z,55.73
2018-10-09T05:03:10.950Z,62.17
2018-10-09T05:05:39.393Z,53.77
2018-10-09T05:08:08.066Z,45.07
2018-10-09T05:10:36.493Z,42.13
2018-10-09T05:13:04.989Z,45.83
2018-10-09T05:15:33.433Z,45.53
2018-10-09T05:18:01.919Z,53.07
2018-10-09T05:20:30.383Z,54.37
2018-10-09T05:22:58.854Z,60.70
2018-10-09T05:25:27.291Z,62.97
2018-10-09T05:27:55.773Z,68.93
2018-10-09T05:30:24.209Z,57.73
2018-10-09T05:32:52.683Z,67.63
2018-10-09T05:35:21.178Z,58.57
2018-10-09T05:37:56.178Z,54.10
2018-10-09T05:40:24.704Z,60.30
2018-10-09T05:42:53.175Z,57.40
2018-10-09T05:45:21.618Z,64.93
2018-10-09T05:47:50.126Z,67.83
2018-10-09T05:50:18.606Z,71.47
2018-10-09T05:52:47.088Z,75.13
2018-10-09T05:55:15.540Z,64.13
2018-10-09T05:57:44.018Z,68.27
2018-10-09T06:00:12.441Z,76.23
2018-10-09T06:02:40.910Z,76.60
2018-10-09T06:05:09.387Z,76.77
2018-10-09T06:07:37.850Z,69.47
2018-10-09T06:10:07.479Z,77.20
2018-10-09T06:12:35.950Z,61.03
2018-10-09T06:15:04.479Z,64.60
2018-10-09T06:17:32.942Z,68.87
2018-10-09T06:20:01.385Z,73.40
2018-10-09T06:22:29.865Z,71.23
2018-10-09T06:24:58.377Z,61.50
2018-10-09T06:27:26.989Z,76.27
2018-10-09T06:29:55.448Z,74.00
2018-10-09T06:32:23.923Z,65.23
2018-10-09T06:34:52.387Z,65.10
2018-10-09T06:37:20.894Z,70.43
2018-10-09T06:39:49.298Z,70.80
2018-10-09T06:42:17.778Z,70.83
2018-10-09T06:44:46.222Z,75.73
2018-10-09T06:47:14.722Z,70.87
2018-10-09T06:49:43.179Z,74.23
2018-10-09T06:52:11.655Z,72.60
2018-10-09T06:54:40.158Z,76.93
2018-10-09T06:57:08.566Z,74.47
2018-10-09T06:59:36.999Z,74.73
2018-10-09T07:02:05.479Z,73.60
2018-10-09T07:04:33.925Z,76.87
2018-10-09T07:07:02.413Z,84.73
2018-10-09T07:09:30.891Z,92.60
2018-10-09T07:11:59.383Z,80.57
2018-10-09T07:14:27.839Z,83.47
2018-10-09T07:16:56.315Z,77.83
2018-10-09T07:19:24.763Z,81.57
2018-10-09T07:21:53.263Z,88.43
2018-10-09T07:24:21.694Z,81.53
2018-10-09T07:26:50.180Z,80.77
2018-10-09T07:29:18.620Z,78.63
2018-10-09T07:31:47.072Z,80.87
2018-10-09T07:34:15.568Z,75.13
2018-10-09T07:36:44.051Z,75.90
2018-10-09T07:39:13.606Z,75.17
2018-10-09T07:41:42.623Z,73.13
2018-10-09T07:44:14.106Z,71.20
2018-10-09T07:46:42.562Z,72.07
2018-10-09T07:49:11.032Z,71.43
2018-10-09T07:51:39.509Z,72.80
2018-10-09T07:54:08.082Z,70.83
2018-10-09T07:56:36.595Z,67.57
2018-10-09T07:59:05.042Z,66.47
2018-10-09T08:01:33.512Z,60.13
2018-10-09T08:04:01.962Z,59.63
2018-10-09T08:06:30.463Z,60.67
2018-10-09T08:08:58.913Z,64.23
2018-10-09T08:11:27.410Z,56.93
2018-10-09T08:13:55.855Z,60.37
2018-10-09T08:16:24.376Z,57.50
2018-10-09T08:18:52.803Z,56.93
2018-10-09T08:21:21.301Z,57.83
2018-10-09T08:23:49.757Z,56.57
2018-10-09T08:26:18.198Z,57.77
2018-10-09T08:28:46.695Z,58.07
2018-10-09T08:31:15.146Z,61.10
2018-10-09T08:33:43.681Z,56.07
2018-10-09T08:36:12.148Z,55.50
2018-10-09T08:38:40.628Z,58.67
2018-10-09T08:41:09.174Z,61.40
2018-10-09T08:43:37.620Z,55.13
2018-10-09T08:46:06.069Z,57.20
2018-10-09T08:48:34.547Z,57.87
2018-10-09T08:51:03.019Z,57.10
2018-10-09T08:53:31.514Z,55.43
2018-10-09T08:55:59.987Z,56.13
2018-10-09T08:58:28.593Z,55.57
2018-10-09T09:00:57.071Z,55.47
2018-10-09T09:03:25.601Z,52.40
2018-10-09T09:05:54.075Z,50.93
2018-10-09T09:08:22.552Z,54.87
2018-10-09T09:10:51.005Z,50.30
2018-10-09T09:13:19.505Z,52.77
2018-10-09T09:15:48.031Z,51.07
2018-10-09T09:18:16.506Z,49.87
2018-10-09T09:20:45.017Z,50.43
2018-10-09T09:23:13.454Z,51.17
2018-10-09T09:25:41.957Z,49.07
2018-10-09T09:28:10.854Z,49.07
2018-10-09T09:30:39.349Z,43.90
2018-10-09T09:33:07.912Z,44.30
2018-10-09T09:35:36.406Z,42.23
2018-10-09T09:38:04.866Z,41.53
2018-10-09T09:40:33.428Z,41.20
2018-10-09T09:43:01.895Z,41.47
2018-10-09T09:45:30.491Z,38.13
2018-10-09T09:47:58.953Z,35.60
2018-10-09T09:50:27.478Z,32.93
2018-10-09T09:52:56.002Z,32.37
2018-10-09T09:55:24.483Z,33.47
2018-10-09T09:57:53.044Z,34.63
2018-10-09T10:00:26.692Z,37.10
2018-10-09T10:02:55.153Z,32.17
2018-10-09T10:05:23.611Z,31.57
2018-10-09T10:07:52.134Z,33.40
2018-10-09T10:10:20.602Z,34.90
2018-10-09T10:12:49.065Z,32.33
2018-10-09T10:15:17.511Z,33.53
2018-10-09T10:17:45.992Z,33.73
2018-10-09T10:20:14.506Z,34.90
2018-10-09T10:22:42.983Z,35.50
2018-10-09T10:25:11.475Z,36.47
2018-10-09T10:27:40.030Z,31.23
2018-10-09T10:30:08.531Z,30.23
2018-10-09T10:32:37.019Z,32.20
2018-10-09T10:35:05.628Z,35.67
2018-10-09T10:37:34.460Z,30.57
2018-10-09T10:40:02.956Z,27.47
2018-10-09T10:42:31.407Z,29.13
2018-10-09T10:44:59.865Z,27.53
2018-10-09T10:47:28.372Z,29.83
2018-10-09T10:49:56.843Z,28.03
2018-10-09T10:52:25.277Z,29.93
2018-10-09T10:54:53.806Z,30.37
2018-10-09T10:57:22.267Z,27.77
2018-10-09T10:59:50.962Z,27.37
2018-10-09T11:02:19.441Z,28.37
2018-10-09T11:04:47.953Z,27.53
2018-10-09T11:07:16.451Z,28.57
2018-10-09T11:09:44.950Z,27.20
2018-10-09T11:12:13.396Z,27.53
2018-10-09T11:14:41.941Z,29.30
2018-10-09T11:17:10.391Z,23.90
2018-10-09T11:19:39.117Z,26.47
2018-10-09T11:22:07.630Z,28.63
2018-10-09T11:24:36.160Z,27.37
2018-10-09T11:27:04.640Z,31.70
2018-10-09T11:29:33.130Z,28.80
2018-10-09T11:32:01.613Z,31.43
2018-10-09T11:34:30.082Z,27.77
2018-10-09T11:36:58.524Z,25.07
2018-10-09T11:39:27.003Z,25.83
2018-10-09T11:41:55.431Z,25.90
2018-10-09T11:44:23.917Z,28.30
2018-10-09T11:46:52.351Z,24.12
2018-10-09T11:49:20.825Z,24.85
2018-10-09T11:51:49.300Z,24.43
2018-10-09T11:54:17.858Z,25.57
2018-10-09T11:56:46.967Z,20.37
2018-10-09T11:59:15.529Z,19.20
2018-10-09T12:01:44.046Z,22.52
2018-10-09T12:04:12.570Z,19.02
2018-10-09T12:06:47.644Z,19.77
2018-10-09T12:09:16.194Z,17.57
2018-10-09T12:11:44.657Z,19.55
2018-10-09T12:14:13.474Z,23.35
2018-10-09T12:16:41.995Z,18.92
2018-10-09T12:19:10.966Z,18.82
2018-10-09T12:21:39.991Z,19.02
2018-10-09T12:24:08.865Z,21.35
2018-10-09T12:26:38.470Z,22.67
2018-10-09T12:29:07.013Z,18.90
2018-10-09T12:31:35.506Z,18.37
2018-10-09T12:34:04.206Z,18.32
2018-10-09T12:36:33.539Z,17.23
2018-10-09T12:39:02.093Z,16.32
2018-10-09T12:41:30.543Z,16.60
2018-10-09T12:43:59.170Z,16.05
2018-10-09T12:46:27.469Z,14.70
2018-10-09T12:48:55.983Z,16.25
2018-10-09T12:51:24.429Z,16.73
2018-10-09T12:53:52.954Z,19.57
2018-10-09T12:56:21.395Z,20.72
2018-10-09T12:58:49.914Z,16.12
2018-10-09T13:01:18.366Z,18.02
2018-10-09T13:03:46.843Z,15.65
2018-10-09T13:06:15.311Z,15.55
2018-10-09T13:08:43.809Z,15.95
2018-10-09T13:11:12.252Z,13.28
2018-10-09T13:13:40.749Z,13.32
2018-10-09T13:16:09.235Z,15.83
2018-10-09T13:18:37.726Z,14.05
2018-10-09T13:21:06.335Z,14.90
2018-10-09T13:23:34.794Z,17.98
2018-10-09T13:26:03.248Z,17.17
2018-10-09T13:28:31.802Z,14.25
2018-10-09T13:31:00.358Z,15.35
2018-10-09T13:33:28.796Z,15.60
2018-10-09T13:35:57.270Z,14.30
2018-10-09T13:38:25.827Z,12.68
2018-10-09T13:40:54.317Z,12.58
2018-10-09T13:43:22.849Z,12.25
2018-10-09T13:45:51.270Z,10.95
2018-10-09T13:48:19.813Z,13.10
2018-10-09T13:50:48.333Z,10.78
2018-10-09T13:53:16.738Z,9.45
2018-10-09T13:55:45.212Z,9.45
2018-10-09T13:58:13.681Z,10.40
2018-10-09T14:00:42.234Z,10.10
2018-10-09T14:03:10.918Z,8.83
2018-10-09T14:05:39.346Z,9.00
2018-10-09T14:08:07.830Z,9.48
2018-10-09T14:10:36.311Z,10.50
2018-10-09T14:13:04.808Z,7.85
2018-10-09T14:15:33.273Z,7.62
2018-10-09T14:18:01.867Z,12.37
2018-10-09T14:20:30.333Z,11.10
2018-10-09T14:22:58.850Z,9.25
2018-10-09T14:25:27.318Z,12.82
2018-10-09T14:27:55.805Z,12.70
2018-10-09T14:30:24.322Z,9.13
2018-10-09T14:32:52.951Z,11.75
2018-10-09T14:35:21.410Z,9.08
2018-10-09T14:37:50.001Z,8.53
2018-10-09T14:40:18.526Z,11.78
2018-10-09T14:42:47.169Z,10.05
2018-10-09T14:45:15.631Z,9.60
2018-10-09T14:47:44.118Z,9.53
2018-10-09T14:50:12.586Z,8.98
2018-10-09T14:52:41.257Z,9.75
2018-10-09T14:55:09.989Z,10.68
2018-10-09T14:57:38.660Z,10.23
2018-10-09T15:00:08.960Z,9.00
2018-10-09T15:02:37.469Z,11.90
2018-10-09T15:05:05.986Z,8.53
2018-10-09T15:07:34.489Z,9.40
2018-10-09T15:10:03.012Z,10.77
2018-10-09T15:12:31.479Z,9.93
2018-10-09T15:15:00.002Z,8.67
2018-10-09T15:17:28.599Z,7.17
2018-10-09T15:19:57.028Z,14.40
2018-10-09T15:22:25.651Z,7.77
2018-10-09T15:24:54.795Z,10.03
2018-10-09T15:27:23.401Z,15.27
2018-10-09T15:29:52.103Z,14.13
2018-10-09T15:32:20.656Z,18.57
2018-10-09T15:34:49.276Z,13.07
2018-10-09T15:37:18.006Z,15.93
2018-10-09T15:39:46.482Z,8.80
2018-10-09T15:42:14.971Z,19.53
2018-10-09T15:44:43.695Z,18.23
2018-10-09T15:47:12.669Z,12.50
2018-10-09T15:49:42.281Z,21.07
2018-10-09T15:52:11.160Z,11.10
2018-10-09T15:54:39.998Z,11.30
2018-10-09T15:57:08.634Z,14.13
2018-10-09T15:59:37.109Z,20.87
2018-10-09T16:02:06.015Z,29.00
2018-10-09T16:04:34.563Z,23.93
2018-10-09T16:07:03.027Z,11.67
2018-10-09T16:09:31.669Z,16.17
2018-10-09T16:12:00.112Z,12.00
2018-10-09T16:14:28.678Z,15.60
2018-10-09T16:16:57.170Z,14.30
2018-10-09T16:19:25.669Z,20.87
2018-10-09T16:21:54.146Z,13.10
2018-10-09T16:24:22.614Z,19.17
2018-10-09T16:26:51.137Z,27.87
2018-10-09T16:29:19.592Z,28.10
2018-10-09T16:31:48.137Z,20.07
2018-10-09T16:34:16.611Z,20.97
2018-10-09T16:36:45.102Z,12.53
2018-10-09T16:39:14.246Z,12.83
2018-10-09T16:41:42.714Z,13.97
2018-10-09T16:44:11.701Z,14.13
2018-10-09T16:46:40.522Z,14.77
2018-10-09T16:49:08.944Z,12.93
2018-10-09T16:51:37.446Z,13.80
2018-10-09T16:54:09.056Z,15.83
2018-10-09T16:56:37.602Z,13.43
2018-10-09T16:59:06.068Z,15.73
2018-10-09T17:01:36.402Z,14.40
2018-10-09T17:04:05.258Z,16.00
2018-10-09T17:06:33.829Z,12.87
2018-10-09T17:09:02.335Z,13.97
2018-10-09T17:11:30.880Z,19.03
2018-10-09T17:13:59.343Z,13.23
2018-10-09T17:16:27.897Z,12.27
2018-10-09T17:18:56.681Z,15.90
2018-10-09T17:21:25.407Z,18.03
2018-10-09T17:23:53.859Z,15.43
2018-10-09T17:26:24.367Z,13.47
2018-10-09T17:28:52.903Z,17.70
2018-10-09T17:31:21.544Z,13.87
2018-10-09T17:33:55.101Z,13.33
2018-10-09T17:36:24.903Z,17.27
2018-10-09T17:38:53.419Z,18.50
2018-10-09T17:41:21.950Z,17.27
2018-10-09T17:43:50.448Z,17.23
2018-10-09T17:46:19.065Z,14.73
2018-10-09T17:48:47.694Z,17.20
2018-10-09T17:51:16.127Z,16.70
2018-10-09T17:53:44.740Z,16.53
2018-10-09T17:56:13.186Z,14.47
2018-10-09T17:58:41.715Z,15.37
2018-10-09T18:01:13.035Z,16.23
2018-10-09T18:03:41.535Z,17.70
2018-10-09T18:06:10.159Z,16.47
2018-10-09T18:08:40.378Z,20.13
2018-10-09T18:11:09.117Z,18.03
2018-10-09T18:13:37.677Z,17.23
2018-10-09T18:16:06.512Z,17.13
2018-10-09T18:18:35.037Z,20.80
2018-10-09T18:21:03.682Z,17.10
2018-10-09T18:23:32.308Z,21.20
2018-10-09T18:26:02.325Z,19.07
2018-10-09T18:28:33.083Z,19.60
2018-10-09T18:31:02.976Z,16.17
2018-10-09T18:33:31.449Z,20.93
2018-10-09T18:35:59.973Z,22.60
2018-10-09T18:38:28.626Z,22.57
2018-10-09T18:40:57.180Z,20.10
2018-10-09T18:43:25.606Z,21.27
2018-10-09T18:45:54.283Z,20.23
2018-10-09T18:48:23.195Z,23.87
2018-10-09T18:50:53.624Z,23.93
2018-10-09T18:53:22.166Z,22.83
2018-10-09T18:55:50.684Z,22.57
2018-10-09T18:58:21.465Z,22.00
2018-10-09T19:00:50.026Z,22.03
2018-10-09T19:03:18.572Z,19.43
2018-10-09T19:05:47.141Z,20.37
2018-10-09T19:08:16.702Z,19.47
2018-10-09T19:10:45.366Z,22.00
2018-10-09T19:13:13.840Z,25.37
2018-10-09T19:15:42.382Z,20.73
2018-10-09T19:18:10.957Z,19.93
2018-10-09T19:20:39.473Z,20.90
2018-10-09T19:23:07.992Z,17.43
2018-10-09T19:25:36.763Z,19.00
2018-10-09T19:28:05.370Z,18.93
2018-10-09T19:30:33.885Z,20.67
2018-10-09T19:33:02.589Z,24.80
2018-10-09T19:35:31.870Z,20.47
2018-10-09T19:38:00.676Z,19.10
2018-10-09T19:40:29.212Z,26.00
2018-10-09T19:42:57.679Z,21.23
2018-10-09T19:45:26.466Z,24.10
2018-10-09T19:47:54.949Z,20.30
2018-10-09T19:50:23.659Z,19.00
2018-10-09T19:52:52.150Z,21.23
2018-10-09T19:55:20.641Z,21.03
2018-10-09T19:57:49.177Z,21.90
2018-10-09T20:00:17.700Z,22.07
2018-10-09T20:02:47.321Z,24.50
2018-10-09T20:05:15.798Z,21.30
2018-10-09T20:07:44.452Z,18.80
2018-10-09T20:10:12.920Z,19.77
2018-10-09T20:12:41.393Z,20.97
2018-10-09T20:15:09.957Z,19.23
2018-10-09T20:17:38.417Z,21.63
2018-10-09T20:20:07.060Z,23.07
2018-10-09T20:22:35.498Z,22.60
2018-10-09T20:25:04.026Z,23.97
2018-10-09T20:27:32.486Z,23.37
2018-10-09T20:30:01.150Z,21.70
2018-10-09T20:32:29.601Z,23.33
2018-10-09T20:34:58.881Z,20.10
2018-10-09T20:37:27.366Z,20.63
2018-10-09T20:39:55.900Z,21.40
2018-10-09T20:42:24.357Z,19.60
2018-10-09T20:44:52.863Z,21.93
2018-10-09T20:47:26.628Z,19.90
2018-10-09T20:49:55.103Z,21.90
2018-10-09T20:52:25.554Z,25.50
2018-10-09T20:54:55.834Z,23.33
2018-10-09T20:57:24.615Z,23.70
2018-10-09T20:59:53.158Z,23.60
2018-10-09T21:02:21.626Z,21.50
2018-10-09T21:04:50.126Z,20.90
2018-10-09T21:07:18.606Z,23.10
2018-10-09T21:09:47.139Z,24.43
2018-10-09T21:12:15.831Z,22.03
2018-10-09T21:14:44.383Z,23.13
2018-10-09T21:17:13.186Z,23.10
2018-10-09T21:19:42.810Z,21.47
2018-10-09T21:22:11.363Z,29.50
2018-10-09T21:24:40.091Z,26.53
2018-10-09T21:27:08.560Z,27.70
2018-10-09T21:29:37.629Z,26.13
2018-10-09T21:32:06.111Z,23.30
2018-10-09T21:34:34.815Z,24.13
2018-10-09T21:37:04.680Z,24.23
2018-10-09T21:39:33.162Z,23.83
2018-10-09T21:42:01.687Z,23.13
2018-10-09T21:44:30.227Z,26.33
2018-10-09T21:46:58.953Z,30.07
2018-10-09T21:49:27.514Z,24.63
2018-10-09T21:51:56.002Z,27.07
2018-10-09T21:54:24.450Z,26.00
2018-10-09T21:56:52.922Z,25.60
2018-10-09T21:59:21.389Z,25.07
2018-10-09T22:01:49.888Z,26.43
2018-10-09T22:04:18.349Z,28.23
2018-10-09T22:06:46.880Z,28.17
2018-10-09T22:09:15.357Z,27.20
2018-10-09T22:11:43.895Z,29.63
2018-10-09T22:14:12.447Z,31.47
2018-10-09T22:16:40.958Z,27.07
2018-10-09T22:19:09.468Z,33.77
2018-10-09T22:21:38.019Z,33.60
2018-10-09T22:24:06.586Z,29.10
2018-10-09T22:26:35.157Z,31.83
2018-10-09T22:29:03.629Z,30.80
2018-10-09T22:31:32.162Z,32.67
2018-10-09T22:34:00.721Z,29.30
2018-10-09T22:36:29.246Z,27.67
2018-10-09T22:38:57.726Z,31.03
2018-10-09T22:41:26.214Z,34.00
2018-10-09T22:43:54.702Z,31.07
2018-10-09T22:46:23.226Z,28.73
2018-10-09T22:48:51.699Z,27.73
2018-10-09T22:51:20.194Z,32.23
2018-10-09T22:53:48.693Z,32.10
2018-10-09T22:56:17.179Z,32.10
2018-10-09T22:58:45.664Z,32.63
2018-10-09T23:01:14.181Z,32.63
2018-10-09T23:03:42.666Z,34.73
2018-10-09T23:06:11.215Z,31.80
2018-10-09T23:08:39.701Z,33.03
2018-10-09T23:11:08.758Z,31.70
2018-10-09T23:13:37.360Z,29.23
2018-10-09T23:16:05.883Z,40.17
2018-10-09T23:18:34.333Z,29.80
2018-10-09T23:21:02.871Z,32.40
2018-10-09T23:23:31.359Z,33.80
2018-10-09T23:25:59.902Z,33.90
2018-10-09T23:28:28.380Z,36.57
2018-10-09T23:30:56.879Z,32.70
2018-10-09T23:33:25.400Z,37.80
2018-10-09T23:35:53.927Z,33.63
2018-10-09T23:38:22.378Z,35.77
2018-10-09T23:40:50.863Z,35.67
2018-10-09T23:43:19.307Z,34.10
2018-10-09T23:45:48.153Z,32.97
2018-10-09T23:48:16.616Z,33.43
2018-10-09T23:50:45.099Z,31.80
2018-10-09T23:53:13.590Z,32.43
2018-10-09T23:55:42.095Z,36.70
2018-10-09T23:58:10.584Z,34.37
